Time;durP1;ratioP1;P1;durP2;ratioP2;P2;SDS_P1;SDS_P2;PMS_P1;PMS_P2;Temp;Humidity;BMP_temperature;BMP_pressure;BME280_temperature;BME280_humidity;BME280_pressure;Samples;Min_cycle;Max_cycle;Signal;HPM_P1;HPM_P2
2023/05/05 00:00:20;;;;;;;5.80;5.20;;;;;;;18.04;nan;99551.97;5037295;28;20234;-78
2023/05/05 00:02:46;;;;;;;5.80;4.90;;;;;;;18.00;nan;99550.59;5040435;28;20436;-77
2023/05/05 00:05:12;;;;;;;5.75;4.50;;;;;;;17.94;nan;99549.34;5035842;28;20436;-79
2023/05/05 00:07:37;;;;;;;6.80;5.03;;;;;;;17.89;nan;99548.94;5035168;28;20220;-82
2023/05/05 00:10:03;;;;;;;4.70;4.30;;;;;;;17.81;nan;99541.69;5034506;28;20284;-80
2023/05/05 00:12:29;;;;;;;5.00;3.90;;;;;;;17.75;nan;99541.44;5035286;28;20211;-78
2023/05/05 00:14:54;;;;;;;4.80;4.30;;;;;;;17.72;nan;99539.91;5034834;28;20518;-78
2023/05/05 00:17:20;;;;;;;6.70;4.80;;;;;;;17.70;nan;99544.50;5035374;28;20189;-78
2023/05/05 00:19:45;;;;;;;4.47;3.97;;;;;;;17.66;nan;99548.41;5033960;28;20678;-78
2023/05/05 00:22:11;;;;;;;6.20;4.93;;;;;;;17.59;nan;99545.53;5035564;28;20555;-78
2023/05/05 00:24:36;;;;;;;5.30;4.80;;;;;;;17.53;nan;99543.44;5035527;28;20207;-78
2023/05/05 00:27:02;;;;;;;5.77;4.60;;;;;;;17.45;nan;99545.97;5034618;28;20205;-78
2023/05/05 00:29:28;;;;;;;5.47;4.97;;;;;;;17.38;nan;99543.03;5035514;28;20703;-77
2023/05/05 00:31:55;;;;;;;6.70;4.60;;;;;;;17.33;nan;99542.63;5034989;28;20452;-81
2023/05/05 00:34:20;;;;;;;4.68;4.32;;;;;;;17.30;nan;99542.09;5020498;28;20959;-80
2023/05/05 00:36:46;;;;;;;6.07;5.50;;;;;;;17.21;nan;99539.31;5036578;28;20278;-79
2023/05/05 00:39:12;;;;;;;5.70;4.23;;;;;;;17.16;nan;99546.03;5039200;28;20206;-78
2023/05/05 00:41:38;;;;;;;5.40;4.28;;;;;;;17.09;nan;99545.72;5042242;28;20709;-79
2023/05/05 00:44:04;;;;;;;6.53;5.53;;;;;;;17.02;nan;99537.50;5037358;28;20233;-78
2023/05/05 00:46:30;;;;;;;5.37;4.50;;;;;;;16.92;nan;99549.94;5039918;28;20805;-78
2023/05/05 00:48:56;;;;;;;4.40;4.00;;;;;;;16.85;nan;99547.97;5038392;28;20233;-78
2023/05/05 00:51:23;;;;;;;6.90;4.60;;;;;;;16.80;nan;99551.06;5037922;28;20233;-78
2023/05/05 00:53:49;;;;;;;5.37;4.87;;;;;;;16.76;nan;99549.63;5039630;28;20763;-79
2023/05/05 00:56:16;;;;;;;5.45;4.95;;;;;;;16.78;nan;99558.31;5037680;28;20583;-81
2023/05/05 00:58:42;;;;;;;5.13;4.32;;;;;;;16.79;nan;99555.50;5039435;28;20216;-78
2023/05/05 01:01:09;;;;;;;4.88;4.47;;;;;;;16.80;nan;99556.38;5040205;28;20244;-78
2023/05/05 01:03:36;;;;;;;5.00;4.60;;;;;;;16.79;nan;99555.50;5031209;28;20481;-80
2023/05/05 01:06:19;;;;;;;6.78;5.38;;;;;;;16.80;nan;99549.25;5044652;28;20431;-78
2023/05/05 01:09:06;;;;;;;6.32;5.15;;;;;;;16.81;nan;99548.25;5030761;28;20215;-79
2023/05/05 01:11:48;;;;;;;6.70;4.97;;;;;;;16.84;nan;99552.44;5039190;28;20304;-82
2023/05/05 01:14:17;;;;;;;7.00;6.30;;;;;;;16.87;nan;99552.16;5040241;28;20217;-80
2023/05/05 01:17:16;;;;;;;4.70;4.30;;;;;;;16.92;nan;99546.44;5040163;28;20199;-78
2023/05/05 01:20:04;;;;;;;4.70;4.20;;;;;;;16.92;nan;99560.53;5031319;28;20892;-79
2023/05/05 01:22:36;;;;;;;5.45;4.40;;;;;;;16.93;nan;99554.28;5037654;28;20819;-78
2023/05/05 01:25:40;;;;;;;5.37;4.43;;;;;;;16.95;nan;99551.47;5038392;28;20589;-78
2023/05/05 01:28:16;;;;;;;5.55;4.68;;;;;;;16.93;nan;99556.94;5037897;28;20436;-79
2023/05/05 01:30:57;;;;;;;5.22;4.50;;;;;;;16.96;nan;99555.81;5039024;28;20232;-79
2023/05/05 01:33:26;;;;;;;4.32;3.83;;;;;;;17.01;nan;99561.50;5038136;28;20761;-79
2023/05/05 01:36:02;;;;;;;5.10;4.70;;;;;;;17.05;nan;99565.59;5038693;28;20464;-78
2023/05/05 01:38:36;;;;;;;7.70;5.97;;;;;;;17.06;nan;99567.25;5038293;28;20599;-78
2023/05/05 01:41:25;;;;;;;5.20;4.80;;;;;;;17.05;nan;99559.44;5038092;28;20228;-78
2023/05/05 01:43:53;;;;;;;4.75;4.25;;;;;;;17.05;nan;99559.44;5037782;28;20223;-78
2023/05/05 01:46:22;;;;;;;6.30;3.97;;;;;;;17.05;nan;99562.09;5036654;28;20199;-79
2023/05/05 01:48:49;;;;;;;7.75;5.05;;;;;;;17.02;nan;99561.38;5037862;28;20212;-78
2023/05/05 01:51:16;;;;;;;5.43;4.57;;;;;;;17.02;nan;99565.88;5019812;28;20741;-78
2023/05/05 01:53:42;;;;;;;4.80;4.40;;;;;;;17.00;nan;99560.69;5037601;28;20576;-78
2023/05/05 01:56:10;;;;;;;4.37;3.97;;;;;;;16.99;nan;99564.31;5011751;28;20211;-78
2023/05/05 01:58:37;;;;;;;4.85;4.43;;;;;;;16.98;nan;99565.28;5012965;28;20519;-78
2023/05/05 02:01:03;;;;;;;3.92;3.50;;;;;;;17.00;nan;99573.94;5019717;28;20274;-79
2023/05/05 02:03:32;;;;;;;5.15;4.30;;;;;;;17.03;nan;99586.09;5036661;28;20262;-79
2023/05/05 02:06:00;;;;;;;7.68;5.00;;;;;;;17.08;nan;99581.22;5012080;28;20428;-78
2023/05/05 02:08:26;;;;;;;6.25;4.22;;;;;;;17.08;nan;99575.91;5019116;28;20219;-78
2023/05/05 02:10:53;;;;;;;4.13;3.63;;;;;;;17.05;nan;99572.72;5013720;28;20266;-78
2023/05/05 02:13:19;;;;;;;4.90;3.70;;;;;;;16.99;nan;99572.28;5018056;28;20203;-79
2023/05/05 02:15:46;;;;;;;4.00;3.70;;;;;;;16.99;nan;99571.47;5020381;28;20226;-78
2023/05/05 02:18:13;;;;;;;5.83;4.00;;;;;;;17.00;nan;99583.72;5012176;28;20216;-78
2023/05/05 02:20:39;;;;;;;3.53;3.22;;;;;;;17.02;nan;99592.41;5012344;28;21003;-79
2023/05/05 02:23:06;;;;;;;5.68;4.20;;;;;;;17.06;nan;99599.09;5037967;28;20213;-79
2023/05/05 02:25:41;;;;;;;4.53;3.83;;;;;;;17.09;nan;99593.50;5036582;28;20641;-78
2023/05/05 02:28:14;;;;;;;4.35;3.72;;;;;;;17.15;nan;99592.13;5036938;28;20210;-78
2023/05/05 02:30:41;;;;;;;3.25;2.95;;;;;;;17.18;nan;99589.19;5018685;28;20324;-78
2023/05/05 02:33:10;;;;;;;3.78;3.38;;;;;;;17.20;nan;99589.88;5036469;28;20838;-78
2023/05/05 02:35:38;;;;;;;4.10;3.80;;;;;;;17.23;nan;99586.97;5035892;28;20432;-78
2023/05/05 02:38:12;;;;;;;4.57;4.18;;;;;;;17.21;nan;99594.22;5014940;28;20218;-78
2023/05/05 02:40:41;;;;;;;4.63;4.22;;;;;;;17.22;nan;99594.06;5014038;28;20265;-79
2023/05/05 02:43:10;;;;;;;4.38;3.50;;;;;;;17.25;nan;99598.25;5014458;28;20685;-78
2023/05/05 02:45:36;;;;;;;3.70;3.40;;;;;;;17.26;nan;99586.66;5012283;28;20603;-78
2023/05/05 02:48:04;;;;;;;5.03;3.67;;;;;;;17.24;nan;99588.63;5013629;28;20977;-79
2023/05/05 02:50:33;;;;;;;4.63;3.77;;;;;;;17.22;nan;99599.38;5014929;28;20198;-78
2023/05/05 02:53:11;;;;;;;4.27;3.87;;;;;;;17.23;nan;99597.56;5017057;28;21026;-78
2023/05/05 02:55:49;;;;;;;4.10;3.80;;;;;;;17.26;nan;99602.59;5019044;28;20527;-78
2023/05/05 02:58:39;;;;;;;4.45;4.05;;;;;;;17.28;nan;99605.94;5017597;28;20202;-78
2023/05/05 03:01:25;;;;;;;6.15;3.28;;;;;;;17.30;nan;99595.19;5013700;28;20220;-79
2023/05/05 03:04:23;;;;;;;4.10;3.70;;;;;;;17.35;nan;99603.56;5015068;28;20439;-79
2023/05/05 03:06:56;;;;;;;4.40;3.90;;;;;;;17.35;nan;99601.75;5019516;28;20203;-78
2023/05/05 03:09:38;;;;;;;4.65;3.63;;;;;;;17.35;nan;99600.91;5013457;28;20451;-79
2023/05/05 03:12:19;;;;;;;4.43;4.00;;;;;;;17.30;nan;99605.81;5016544;28;20243;-78
2023/05/05 03:14:58;;;;;;;3.83;3.53;;;;;;;17.27;nan;99604.25;5031140;28;20539;-78
2023/05/05 03:17:26;;;;;;;4.73;3.80;;;;;;;17.24;nan;99599.25;5016471;28;20204;-80
2023/05/05 03:19:52;;;;;;;4.40;4.00;;;;;;;17.15;nan;99594.78;5017855;28;20566;-80
2023/05/05 03:22:18;;;;;;;6.05;3.72;;;;;;;17.06;nan;99595.59;5015112;28;20444;-80
2023/05/05 03:24:50;;;;;;;5.28;4.75;;;;;;;17.01;nan;99599.53;5020479;28;20577;-78
2023/05/05 03:27:16;;;;;;;4.18;3.75;;;;;;;16.99;nan;99587.38;5016459;28;21014;-79
2023/05/05 03:29:41;;;;;;;6.43;3.80;;;;;;;16.90;nan;99585.53;5019665;28;20216;-78
2023/05/05 03:32:11;;;;;;;5.25;4.75;;;;;;;16.81;nan;99589.88;5017729;28;20213;-80
2023/05/05 03:34:37;;;;;;;7.40;4.10;;;;;;;16.78;nan;99590.97;5022989;28;20428;-80
2023/05/05 03:37:04;;;;;;;4.90;4.45;;;;;;;16.81;nan;99593.34;5035783;28;20680;-78
2023/05/05 03:39:29;;;;;;;4.50;4.10;;;;;;;16.82;nan;99599.50;5038212;28;20220;-78
2023/05/05 03:41:55;;;;;;;5.20;4.43;;;;;;;16.82;nan;99599.50;5029434;28;20212;-79
2023/05/05 03:44:22;;;;;;;8.80;4.45;;;;;;;16.74;nan;99581.59;5035882;28;20549;-79
2023/05/05 03:46:47;;;;;;;5.10;4.07;;;;;;;16.67;nan;99584.94;5038259;28;20832;-78
2023/05/05 03:49:14;;;;;;;8.45;4.05;;;;;;;16.54;nan;99583.38;5027161;28;20785;-79
2023/05/05 03:51:41;;;;;;;4.25;3.85;;;;;;;16.48;nan;99583.91;5034951;28;20707;-80
2023/05/05 03:54:06;;;;;;;6.63;3.93;;;;;;;16.47;nan;99584.03;5034843;28;20206;-79
2023/05/05 03:56:32;;;;;;;4.87;4.43;;;;;;;16.48;nan;99580.44;5036662;28;20298;-81
2023/05/05 03:58:57;;;;;;;5.10;3.90;;;;;;;16.51;nan;99591.59;5037010;28;20273;-79
2023/05/05 04:01:23;;;;;;;4.73;4.07;;;;;;;16.53;nan;99592.31;5034867;28;20789;-79
2023/05/05 04:03:49;;;;;;;5.95;4.35;;;;;;;16.53;nan;99596.78;5035563;28;20465;-79
2023/05/05 04:06:15;;;;;;;6.37;4.63;;;;;;;16.53;nan;99596.78;5035874;28;20209;-79
2023/05/05 04:08:40;;;;;;;5.37;3.83;;;;;;;16.51;nan;99606.66;5038174;28;20239;-81
2023/05/05 04:11:06;;;;;;;5.40;4.20;;;;;;;16.46;nan;99611.53;5038519;28;20246;-80
2023/05/05 04:13:33;;;;;;;6.45;4.50;;;;;;;16.37;nan;99619.31;5032643;28;20237;-81
2023/05/05 04:15:58;;;;;;;6.27;4.40;;;;;;;16.30;nan;99623.47;5038351;28;20239;-80
2023/05/05 04:18:25;;;;;;;6.97;5.15;;;;;;;16.24;nan;99618.72;5030789;28;20200;-80
2023/05/05 04:20:50;;;;;;;6.87;5.20;;;;;;;16.15;nan;99615.06;5031808;28;20208;-81
2023/05/05 04:23:15;;;;;;;6.70;4.80;;;;;;;16.15;nan;99615.06;5036501;28;20204;-81
2023/05/05 04:25:42;;;;;;;5.30;4.13;;;;;;;16.17;nan;99612.25;5036677;28;20306;-80
2023/05/05 04:28:08;;;;;;;6.78;5.57;;;;;;;16.18;nan;99613.97;5036172;28;20206;-80
2023/05/05 04:30:35;;;;;;;5.72;5.22;;;;;;;16.19;nan;99622.75;5036149;28;20578;-80
2023/05/05 04:33:00;;;;;;;5.03;3.90;;;;;;;16.21;nan;99624.28;5033731;28;20834;-80
2023/05/05 04:35:26;;;;;;;6.90;5.20;;;;;;;16.26;nan;99630.03;5034568;28;20448;-81
2023/05/05 04:37:53;;;;;;;7.97;6.17;;;;;;;16.25;nan;99631.00;5036939;28;20580;-80
2023/05/05 04:40:19;;;;;;;6.65;5.15;;;;;;;16.26;nan;99626.56;5030765;28;20270;-82
2023/05/05 04:42:45;;;;;;;6.53;5.35;;;;;;;16.25;nan;99635.44;5036752;28;20660;-80
2023/05/05 04:45:11;;;;;;;8.90;5.17;;;;;;;16.24;nan;99628.50;5036095;28;20292;-80
2023/05/05 04:47:38;;;;;;;7.20;5.00;;;;;;;16.27;nan;99649.41;5036624;28;20204;-80
2023/05/05 04:50:05;;;;;;;6.32;5.75;;;;;;;16.28;nan;99640.47;5030207;28;20208;-80
2023/05/05 04:52:31;;;;;;;7.57;5.57;;;;;;;16.25;nan;99646.06;5036803;28;20228;-80
2023/05/05 04:54:57;;;;;;;12.93;6.05;;;;;;;16.23;nan;99634.75;5038460;28;20204;-80
2023/05/05 04:57:22;;;;;;;6.40;4.37;;;;;;;16.26;nan;99647.75;5031343;28;20400;-82
2023/05/05 04:59:48;;;;;;;6.20;5.00;;;;;;;16.29;nan;99655.44;5037335;28;20223;-81
2023/05/05 05:02:13;;;;;;;6.00;4.67;;;;;;;16.34;nan;99647.94;5041842;28;20869;-81
2023/05/05 05:04:39;;;;;;;8.97;6.23;;;;;;;16.38;nan;99650.16;5044093;28;20256;-80
2023/05/05 05:07:04;;;;;;;5.47;4.50;;;;;;;16.42;nan;99647.22;5039581;28;20635;-79
2023/05/05 05:09:30;;;;;;;7.57;5.27;;;;;;;16.41;nan;99642.91;5035781;28;20235;-79
2023/05/05 05:12:01;;;;;;;8.13;5.15;;;;;;;16.40;nan;99644.72;5036223;28;20191;-78
2023/05/05 05:14:35;;;;;;;5.13;4.63;;;;;;;16.38;nan;99644.03;5035788;28;20224;-80
2023/05/05 05:17:00;;;;;;;6.60;5.57;;;;;;;16.35;nan;99645.13;5043176;28;21146;-81
2023/05/05 05:19:27;;;;;;;5.87;5.23;;;;;;;16.35;nan;99647.78;5040274;28;20208;-80
2023/05/05 05:21:52;;;;;;;6.60;5.00;;;;;;;16.37;nan;99645.00;5032840;28;20621;-81
2023/05/05 05:24:18;;;;;;;5.27;4.77;;;;;;;16.40;nan;99647.38;5038049;28;20250;-80
2023/05/05 05:26:43;;;;;;;5.80;5.20;;;;;;;16.42;nan;99642.78;5046139;28;20720;-79
2023/05/05 05:29:09;;;;;;;6.03;5.40;;;;;;;16.42;nan;99642.78;5042324;28;20211;-80
2023/05/05 05:31:35;;;;;;;5.20;4.70;;;;;;;16.43;nan;99649.75;5042563;28;20659;-80
2023/05/05 05:34:01;;;;;;;8.98;5.70;;;;;;;16.47;nan;99640.59;5042568;28;20226;-81
2023/05/05 05:36:27;;;;;;;6.13;5.07;;;;;;;16.49;nan;99630.66;5041807;28;20209;-80
2023/05/05 05:38:52;;;;;;;6.13;4.60;;;;;;;16.53;nan;99632.06;5047871;28;20462;-80
2023/05/05 05:41:18;;;;;;;6.13;5.17;;;;;;;16.57;nan;99630.00;5040426;28;20473;-79
2023/05/05 05:43:43;;;;;;;6.37;5.60;;;;;;;16.64;nan;99635.59;5039644;28;20218;-80
2023/05/05 05:46:09;;;;;;;10.23;4.67;;;;;;;16.68;nan;99637.00;5038152;28;20741;-79
2023/05/05 05:48:36;;;;;;;5.28;3.55;;;;;;;16.71;nan;99632.25;5029389;28;20284;-79
2023/05/05 05:51:02;;;;;;;7.13;3.97;;;;;;;16.76;nan;99637.97;5038215;28;20194;-79
2023/05/05 05:53:27;;;;;;;6.63;4.50;;;;;;;16.82;nan;99644.59;5036946;28;21153;-80
2023/05/05 05:55:53;;;;;;;7.00;4.90;;;;;;;16.89;nan;99645.72;5038143;28;20202;-80
2023/05/05 05:58:19;;;;;;;5.43;4.37;;;;;;;16.97;nan;99640.56;5039210;28;20215;-80
2023/05/05 06:00:44;;;;;;;5.77;4.30;;;;;;;17.03;nan;99637.34;5037840;28;20212;-80
2023/05/05 06:03:10;;;;;;;4.73;4.30;;;;;;;17.12;nan;99648.13;5036116;28;20204;-79
2023/05/05 06:05:37;;;;;;;7.97;4.35;;;;;;;17.23;nan;99650.66;5041417;28;20435;-79
2023/05/05 06:08:02;;;;;;;7.37;6.70;;;;;;;17.29;nan;99644.78;5038426;28;20205;-80
2023/05/05 06:10:30;;;;;;;5.37;4.90;;;;;;;17.34;nan;99647.88;5035915;28;20232;-79
2023/05/05 06:13:12;;;;;;;4.95;4.45;;;;;;;17.43;nan;99647.00;5037112;28;20927;-79
2023/05/05 06:15:42;;;;;;;7.03;4.90;;;;;;;17.51;nan;99642.81;5037119;28;20247;-80
2023/05/05 06:18:08;;;;;;;10.53;4.67;;;;;;;17.59;nan;99638.47;5034854;28;20467;-79
2023/05/05 06:20:34;;;;;;;6.33;4.60;;;;;;;17.63;nan;99634.56;5035317;28;21028;-79
2023/05/05 06:22:59;;;;;;;5.43;4.60;;;;;;;17.64;nan;99644.22;5035720;28;20500;-79
2023/05/05 06:25:27;;;;;;;5.10;3.92;;;;;;;17.72;nan;99642.66;5035534;28;20220;-80
2023/05/05 06:27:52;;;;;;;5.53;4.93;;;;;;;17.80;nan;99645.47;5037652;28;20691;-80
2023/05/05 06:30:18;;;;;;;5.43;4.60;;;;;;;17.91;nan;99650.63;5037593;28;20594;-80
2023/05/05 06:32:43;;;;;;;7.67;4.93;;;;;;;18.00;nan;99640.94;5037117;28;20203;-79
2023/05/05 06:35:09;;;;;;;5.60;4.13;;;;;;;18.07;nan;99648.19;5036201;28;20446;-80
2023/05/05 06:37:34;;;;;;;5.10;3.77;;;;;;;18.14;nan;99649.28;5036741;28;20210;-80
2023/05/05 06:40:00;;;;;;;5.27;4.00;;;;;;;18.21;nan;99644.22;5037299;28;20796;-80
2023/05/05 06:42:25;;;;;;;4.00;3.67;;;;;;;18.34;nan;99651.88;5037267;28;20257;-80
2023/05/05 06:44:51;;;;;;;5.70;4.43;;;;;;;18.42;nan;99638.69;5037336;28;20209;-80
2023/05/05 06:47:17;;;;;;;4.20;3.80;;;;;;;18.49;nan;99642.41;5036939;28;20468;-80
2023/05/05 06:49:42;;;;;;;5.47;5.07;;;;;;;18.52;nan;99651.94;5036200;28;20562;-80
2023/05/05 06:52:07;;;;;;;5.03;4.07;;;;;;;18.58;nan;99654.03;5037910;28;20294;-80
2023/05/05 06:54:33;;;;;;;5.53;4.43;;;;;;;18.66;nan;99659.44;5038446;28;20233;-80
2023/05/05 06:56:58;;;;;;;3.80;3.40;;;;;;;18.73;nan;99667.66;5037324;28;20218;-80
2023/05/05 06:59:24;;;;;;;5.37;3.90;;;;;;;18.80;nan;99668.78;5036827;28;20206;-79
2023/05/05 07:01:50;;;;;;;6.63;4.30;;;;;;;18.85;nan;99670.97;5036945;28;20558;-80
2023/05/05 07:04:16;;;;;;;5.90;4.60;;;;;;;18.87;nan;99666.34;5036917;28;20221;-80
2023/05/05 07:06:41;;;;;;;4.60;4.20;;;;;;;18.90;nan;99674.03;5018079;28;20452;-80
2023/05/05 07:09:06;;;;;;;5.33;4.20;;;;;;;18.95;nan;99677.06;5038000;28;20243;-80
2023/05/05 07:11:32;;;;;;;5.37;4.77;;;;;;;18.96;nan;99671.63;5036743;28;20712;-80
2023/05/05 07:13:57;;;;;;;6.60;4.80;;;;;;;18.93;nan;99671.06;5036926;28;20219;-80
2023/05/05 07:16:23;;;;;;;5.37;4.87;;;;;;;18.92;nan;99674.72;5037842;28;20206;-84
2023/05/05 07:18:49;;;;;;;7.03;5.50;;;;;;;18.89;nan;99675.03;5037568;28;20194;-80
2023/05/05 07:21:14;;;;;;;6.70;5.10;;;;;;;18.83;nan;99676.44;5037095;28;20908;-82
2023/05/05 07:23:39;;;;;;;7.53;5.57;;;;;;;18.77;nan;99669.91;5039219;28;20306;-81
2023/05/05 07:26:05;;;;;;;7.47;4.77;;;;;;;18.74;nan;99667.53;5038561;28;20209;-81
2023/05/05 07:28:30;;;;;;;9.30;5.40;;;;;;;18.73;nan;99659.66;5039464;28;20702;-80
2023/05/05 07:30:56;;;;;;;8.43;5.03;;;;;;;18.71;nan;99651.84;5040069;28;20285;-83
2023/05/05 07:33:21;;;;;;;6.43;5.67;;;;;;;18.74;nan;99654.25;5039722;28;20195;-81
2023/05/05 07:35:46;;;;;;;7.00;5.87;;;;;;;18.79;nan;99644.00;5079464;22;20460;-80
2023/05/05 07:38:12;;;;;;;10.07;5.97;;;;;;;18.80;nan;99658.13;5033431;28;20210;-80
2023/05/05 07:40:37;;;;;;;8.50;5.90;;;;;;;18.82;nan;99660.63;5041785;28;20236;-80
2023/05/05 07:43:03;;;;;;;6.10;5.50;;;;;;;18.84;nan;99666.63;5059786;28;20255;-80
2023/05/05 07:45:30;;;;;;;7.63;5.80;;;;;;;18.85;nan;99662.97;5059074;28;20288;-80
2023/05/05 07:47:55;;;;;;;6.40;5.10;;;;;;;18.86;nan;99654.03;5031788;28;20543;-80
2023/05/05 07:50:22;;;;;;;8.90;5.40;;;;;;;18.86;nan;99660.19;5034541;28;20512;-80
2023/05/05 07:52:47;;;;;;;6.00;5.50;;;;;;;18.89;nan;99653.72;5031912;28;20198;-80
2023/05/05 07:55:12;;;;;;;5.70;4.93;;;;;;;18.91;nan;99654.41;5035095;28;20505;-80
2023/05/05 07:57:38;;;;;;;6.93;5.63;;;;;;;18.92;nan;99650.75;5034758;28;20213;-80
2023/05/05 08:00:04;;;;;;;5.90;5.30;;;;;;;18.90;nan;99655.38;5033998;28;20213;-80
2023/05/05 08:02:37;;;;;;;6.70;5.97;;;;;;;18.93;nan;99649.75;5033524;28;20640;-81
2023/05/05 08:05:03;;;;;;;5.00;4.50;;;;;;;18.96;nan;99650.31;5034240;28;20458;-80
2023/05/05 08:07:28;;;;;;;9.57;5.23;;;;;;;18.97;nan;99637.84;5034275;28;20642;-80
2023/05/05 08:09:54;;;;;;;5.87;4.83;;;;;;;18.99;nan;99639.38;5034493;28;20219;-80
2023/05/05 08:12:19;;;;;;;4.47;4.07;;;;;;;19.04;nan;99638.91;5032428;28;20198;-80
2023/05/05 08:14:45;;;;;;;6.67;5.17;;;;;;;19.12;nan;99635.47;5034689;28;20220;-80
2023/05/05 08:17:10;;;;;;;5.30;4.63;;;;;;;19.32;nan;99644.16;5034211;28;20213;-80
2023/05/05 08:19:36;;;;;;;9.20;5.30;;;;;;;19.71;nan;99636.66;5034318;28;20207;-80
2023/05/05 08:22:01;;;;;;;7.40;5.90;;;;;;;20.11;nan;99637.94;5033497;28;20226;-80
2023/05/05 08:24:26;;;;;;;6.87;4.67;;;;;;;20.57;nan;99637.69;5035695;28;20926;-81
2023/05/05 08:26:52;;;;;;;6.30;5.07;;;;;;;20.87;nan;99642.44;5035013;28;21165;-80
2023/05/05 08:29:17;;;;;;;5.07;4.43;;;;;;;21.18;nan;99633.81;5034791;28;20209;-80
2023/05/05 08:31:43;;;;;;;6.20;5.50;;;;;;;21.42;nan;99631.19;5034520;28;20213;-81
2023/05/05 08:34:08;;;;;;;5.90;4.70;;;;;;;21.56;nan;99623.50;5035088;28;20209;-80
2023/05/05 08:36:34;;;;;;;4.00;3.70;;;;;;;21.67;nan;99623.16;5032897;28;20232;-81
2023/05/05 08:38:59;;;;;;;6.57;4.47;;;;;;;21.76;nan;99618.63;5035397;28;20533;-81
2023/05/05 08:41:25;;;;;;;4.40;4.00;;;;;;;21.82;nan;99617.97;5035488;28;20207;-80
2023/05/05 08:43:51;;;;;;;10.50;5.40;;;;;;;21.87;nan;99620.94;5034913;28;20211;-80
2023/05/05 08:46:16;;;;;;;3.97;3.63;;;;;;;21.84;nan;99613.28;5032220;28;20462;-80
2023/05/05 08:48:43;;;;;;;5.47;4.37;;;;;;;21.75;nan;99615.13;5036283;28;20504;-81
2023/05/05 08:51:15;;;;;;;4.90;3.93;;;;;;;21.74;nan;99623.31;5035460;28;20254;-80
2023/05/05 08:53:47;;;;;;;4.77;3.63;;;;;;;21.79;nan;99621.81;5027545;28;20430;-80
2023/05/05 08:56:14;;;;;;;4.57;3.30;;;;;;;21.88;nan;99618.13;5034836;28;20454;-81
2023/05/05 08:58:41;;;;;;;3.83;3.53;;;;;;;21.96;nan;99613.78;5033782;28;20512;-81
2023/05/05 09:01:08;;;;;;;3.20;2.90;;;;;;;22.08;nan;99609.72;5038575;28;21038;-81
2023/05/05 09:03:36;;;;;;;7.53;3.37;;;;;;;22.24;nan;99609.69;5038816;28;21040;-81
2023/05/05 09:06:01;;;;;;;4.70;3.80;;;;;;;22.36;nan;99595.91;5039104;28;20830;-80
2023/05/05 09:08:27;;;;;;;3.67;3.37;;;;;;;22.57;nan;99592.66;5018090;28;20454;-80
2023/05/05 09:10:54;;;;;;;4.50;4.10;;;;;;;22.80;nan;99598.88;5039336;28;20232;-80
2023/05/05 09:13:19;;;;;;;4.00;3.57;;;;;;;23.05;nan;99591.53;5038849;28;20998;-82
2023/05/05 09:15:45;;;;;;;4.70;4.30;;;;;;;23.32;nan;99582.13;5039045;28;20430;-80
2023/05/05 09:18:11;;;;;;;4.97;4.30;;;;;;;23.47;nan;99590.22;5039196;28;20228;-80
2023/05/05 09:20:38;;;;;;;5.67;3.67;;;;;;;23.61;nan;99589.41;5028705;28;20224;-81
2023/05/05 09:23:14;;;;;;;4.97;3.97;;;;;;;23.70;nan;99590.16;5038366;28;20447;-80
2023/05/05 09:25:43;;;;;;;3.50;3.20;;;;;;;23.77;nan;99579.56;5039548;28;20451;-81
2023/05/05 09:28:13;;;;;;;7.00;3.70;;;;;;;23.83;nan;99589.56;5037663;28;20429;-80
2023/05/05 09:30:41;;;;;;;4.23;3.23;;;;;;;23.77;nan;99584.94;5038800;28;20451;-80
2023/05/05 09:33:06;;;;;;;5.60;3.80;;;;;;;23.71;nan;99577.56;5039911;28;20415;-80
2023/05/05 09:35:52;;;;;;;4.30;3.90;;;;;;;23.87;nan;99576.59;5042028;28;21070;-80
2023/05/05 09:38:18;;;;;;;5.20;3.33;;;;;;;24.02;nan;99577.44;5022260;28;20301;-80
2023/05/05 09:40:52;;;;;;;4.13;3.73;;;;;;;24.21;nan;99576.03;5020072;28;20757;-81
2023/05/05 09:43:22;;;;;;;4.10;3.70;;;;;;;24.26;nan;99570.94;5020092;28;21062;-82
2023/05/05 09:45:49;;;;;;;4.43;3.60;;;;;;;24.24;nan;99567.59;5019059;28;20813;-81
2023/05/05 09:48:30;;;;;;;4.87;4.37;;;;;;;24.24;nan;99568.44;5022271;28;20424;-81
2023/05/05 09:50:59;;;;;;;3.50;3.20;;;;;;;24.32;nan;99572.88;5021787;28;20487;-81
2023/05/05 09:53:26;;;;;;;4.37;3.97;;;;;;;24.36;nan;99565.25;5020764;28;20416;-81
2023/05/05 09:55:58;;;;;;;6.10;3.67;;;;;;;24.40;nan;99555.84;5020371;28;20423;-80
2023/05/05 09:58:26;;;;;;;4.20;3.80;;;;;;;24.46;nan;99563.97;5017806;28;20449;-81
2023/05/05 10:00:53;;;;;;;4.37;3.90;;;;;;;24.51;nan;99561.56;5020417;28;21005;-81
2023/05/05 10:03:19;;;;;;;5.73;3.70;;;;;;;24.59;nan;99549.06;5016977;28;20949;-81
2023/05/05 10:05:51;;;;;;;4.20;3.20;;;;;;;24.59;nan;99543.69;5010401;28;20976;-80
2023/05/05 10:08:30;;;;;;;5.90;5.13;;;;;;;24.54;nan;99548.78;5017681;28;20426;-82
2023/05/05 10:10:59;;;;;;;4.23;3.57;;;;;;;24.54;nan;99552.28;5019914;28;20444;-81
2023/05/05 10:13:25;;;;;;;5.20;4.10;;;;;;;24.48;nan;99545.00;5017728;28;20806;-81
2023/05/05 10:15:52;;;;;;;3.60;3.03;;;;;;;24.44;nan;99547.25;5015348;28;20456;-79
2023/05/05 10:18:20;;;;;;;3.93;3.00;;;;;;;24.55;nan;99539.69;5017135;28;20424;-79
2023/05/05 10:20:50;;;;;;;3.47;3.17;;;;;;;24.68;nan;99534.47;5015561;28;20464;-79
2023/05/05 10:23:19;;;;;;;3.53;3.23;;;;;;;24.75;nan;99534.56;5015432;28;21137;-79
2023/05/05 10:26:01;;;;;;;3.43;3.13;;;;;;;24.83;nan;99526.38;5016892;28;20511;-81
2023/05/05 10:28:51;;;;;;;3.70;3.37;;;;;;;24.92;nan;99527.88;5020353;28;20453;-81
2023/05/05 10:31:29;;;;;;;3.70;3.40;;;;;;;25.02;nan;99520.34;5019680;28;20427;-82
2023/05/05 10:34:15;;;;;;;3.17;2.83;;;;;;;25.15;nan;99522.34;5014956;28;21384;-80
2023/05/05 10:36:41;;;;;;;5.17;3.30;;;;;;;25.12;nan;99520.84;5025136;28;21262;-80
2023/05/05 10:39:09;;;;;;;4.57;3.27;;;;;;;25.08;nan;99519.56;5039245;28;20440;-81
2023/05/05 10:41:36;;;;;;;4.93;2.70;;;;;;;25.08;nan;99522.25;5044080;28;20473;-82
2023/05/05 10:44:03;;;;;;;3.50;3.17;;;;;;;25.12;nan;99517.34;5042785;28;20452;-81
2023/05/05 10:46:30;;;;;;;3.93;3.43;;;;;;;25.20;nan;99508.34;5036789;28;20552;-82
2023/05/05 10:49:03;;;;;;;4.23;3.80;;;;;;;25.22;nan;99507.13;5044221;28;20952;-80
2023/05/05 10:51:45;;;;;;;3.93;3.53;;;;;;;25.27;nan;99506.50;5041032;28;20433;-80
2023/05/05 10:54:23;;;;;;;4.47;2.87;;;;;;;25.30;nan;99512.34;5035684;28;20448;-80
2023/05/05 10:56:50;;;;;;;2.53;2.33;;;;;;;25.36;nan;99500.81;5036753;28;20466;-80
2023/05/05 10:59:42;;;;;;;3.90;2.93;;;;;;;25.43;nan;99500.00;5035221;28;20471;-81
2023/05/05 11:02:28;;;;;;;2.70;2.50;;;;;;;25.49;nan;99488.47;5034225;28;20466;-82
2023/05/05 11:05:16;;;;;;;2.90;2.60;;;;;;;25.53;nan;99489.75;5036645;28;20445;-80
2023/05/05 11:07:45;;;;;;;3.23;2.93;;;;;;;25.58;nan;99484.59;5037275;28;20475;-81
2023/05/05 11:10:14;;;;;;;3.43;2.70;;;;;;;25.59;nan;99483.56;5036900;28;20473;-80
2023/05/05 11:13:01;;;;;;;4.67;2.70;;;;;;;25.58;nan;99471.97;5035403;28;20452;-81
2023/05/05 11:15:36;;;;;;;4.37;2.73;;;;;;;25.58;nan;99469.28;5037138;28;20435;-80
2023/05/05 11:18:03;;;;;;;5.13;2.57;;;;;;;25.70;nan;99455.28;5037015;28;20901;-81
2023/05/05 11:20:44;;;;;;;2.80;2.60;;;;;;;25.75;nan;99452.81;5038069;28;20568;-80
2023/05/05 11:23:10;;;;;;;2.93;2.37;;;;;;;25.85;nan;99460.56;5037700;28;20446;-81
2023/05/05 11:25:37;;;;;;;5.33;2.97;;;;;;;25.93;nan;99449.63;5039420;28;20543;-82
2023/05/05 11:28:11;;;;;;;3.23;2.93;;;;;;;25.94;nan;99435.94;5036664;28;20197;-81
2023/05/05 11:30:55;;;;;;;3.97;2.83;;;;;;;26.00;nan;99431.63;5038216;28;20469;-80
2023/05/05 11:33:32;;;;;;;2.20;2.00;;;;;;;26.11;nan;99428.34;5028017;28;20439;-81
2023/05/05 11:36:02;;;;;;;4.17;3.30;;;;;;;26.17;nan;99424.84;5038702;28;20952;-81
2023/05/05 11:39:12;;;;;;;3.30;2.20;;;;;;;26.22;nan;99414.31;5034831;28;20540;-81
2023/05/05 11:41:53;;;;;;;2.23;2.03;;;;;;;26.30;nan;99412.44;5056463;28;20471;-85
2023/05/05 11:44:28;;;;;;;2.73;2.50;;;;;;;26.33;nan;99403.94;5058212;28;20542;-85
2023/05/05 11:46:57;;;;;;;3.50;2.27;;;;;;;26.09;nan;99402.69;5057357;28;20470;-85
2023/05/05 11:49:27;;;;;;;6.00;2.80;;;;;;;25.98;nan;99406.78;5061246;28;20877;-85
2023/05/05 11:52:03;;;;;;;2.80;2.20;;;;;;;25.97;nan;99407.81;5058820;28;21156;-85
2023/05/05 11:54:30;;;;;;;1.70;1.60;;;;;;;25.90;nan;99393.53;5049013;28;20424;-82
2023/05/05 11:57:12;;;;;;;1.83;1.73;;;;;;;25.89;nan;99392.66;5044750;28;20457;-82
2023/05/05 11:59:55;;;;;;;3.20;1.83;;;;;;;25.87;nan;99388.50;5044003;28;20458;-82